createdAt,value
2023-03-27T00:01:21.971Z,92.27
2023-03-27T00:03:50.317Z,92.01
2023-03-27T00:06:18.748Z,91.57
2023-03-27T00:08:49.102Z,91.38
2023-03-27T00:11:16.907Z,91.75
2023-03-27T00:13:49.650Z,92.82
2023-03-27T00:16:19.269Z,92.58
2023-03-27T00:18:45.865Z,92.85
2023-03-27T00:21:12.913Z,92.75
2023-03-27T00:23:40.335Z,92.48
2023-03-27T00:26:07.067Z,92.89
2023-03-27T00:28:34.126Z,91.70
2023-03-27T00:31:00.764Z,92.26
2023-03-27T00:33:27.618Z,92.20
2023-03-27T00:35:54.256Z,92.95
2023-03-27T00:38:21.353Z,93.04
2023-03-27T00:40:50.755Z,92.61
2023-03-27T00:43:23.318Z,92.75
2023-03-27T00:45:52.640Z,93.68
2023-03-27T00:48:20.652Z,93.54
2023-03-27T00:50:48.846Z,93.24
2023-03-27T00:53:22.453Z,93.22
2023-03-27T00:55:52.702Z,93.50
2023-03-27T00:58:25.971Z,93.80
2023-03-27T01:00:55.502Z,93.37
2023-03-27T01:03:26.180Z,92.85
2023-03-27T01:05:54.494Z,93.28
2023-03-27T01:08:21.815Z,93.55
2023-03-27T01:10:57.597Z,92.97
2023-03-27T01:13:46.013Z,93.05
2023-03-27T01:16:28.454Z,92.70
2023-03-27T01:19:13.169Z,92.92
2023-03-27T01:21:52.070Z,92.42
2023-03-27T01:24:38.441Z,92.09
2023-03-27T01:27:37.987Z,92.31
2023-03-27T01:30:40.032Z,92.11
2023-03-27T01:33:26.487Z,92.23
2023-03-27T01:36:11.337Z,92.08
2023-03-27T01:39:04.581Z,92.31
2023-03-27T01:41:49.741Z,92.20
2023-03-27T01:44:22.036Z,91.79
2023-03-27T01:46:55.424Z,92.26
2023-03-27T01:49:31.174Z,91.38
2023-03-27T01:52:06.730Z,91.59
2023-03-27T01:54:37.771Z,91.84
2023-03-27T01:57:29.076Z,91.52
2023-03-27T02:00:17.499Z,91.82
2023-03-27T02:03:15.367Z,91.12
2023-03-27T02:05:51.332Z,91.90
2023-03-27T02:08:27.331Z,92.31
2023-03-27T02:10:58.261Z,92.79
2023-03-27T02:13:47.893Z,92.63
2023-03-27T02:16:19.444Z,92.93
2023-03-27T02:18:58.160Z,93.17
2023-03-27T02:21:25.181Z,92.32
2023-03-27T02:23:53.146Z,93.01
2023-03-27T02:26:19.704Z,93.17
2023-03-27T02:29:01.687Z,93.56
2023-03-27T02:32:19.185Z,93.56
2023-03-27T02:34:57.049Z,93.66
2023-03-27T02:37:45.604Z,93.83
2023-03-27T02:40:39.731Z,93.84
2023-03-27T02:43:17.151Z,93.97
2023-03-27T02:45:59.512Z,94.42
2023-03-27T02:48:40.955Z,94.03
2023-03-27T02:51:13.343Z,94.14
2023-03-27T02:53:51.020Z,94.04
2023-03-27T02:56:20.601Z,93.80
2023-03-27T02:58:53.151Z,93.93
2023-03-27T03:01:22.273Z,94.61
2023-03-27T03:04:01.410Z,94.63
2023-03-27T03:06:30.829Z,94.61
2023-03-27T03:09:05.674Z,94.32
2023-03-27T03:11:38.337Z,93.98
2023-03-27T03:14:05.226Z,94.45
2023-03-27T03:16:31.805Z,94.51
2023-03-27T03:18:58.298Z,94.10
2023-03-27T03:21:25.409Z,93.78
2023-03-27T03:23:57.510Z,94.26
2023-03-27T03:26:25.048Z,94.08
2023-03-27T03:29:00.882Z,95.05
2023-03-27T03:31:43.098Z,95.39
2023-03-27T03:34:16.229Z,95.27
2023-03-27T03:36:45.005Z,95.54
2023-03-27T03:39:12.968Z,95.76
2023-03-27T03:41:39.641Z,94.62
2023-03-27T03:44:06.339Z,94.01
2023-03-27T03:46:33.178Z,93.76
2023-03-27T03:49:00.951Z,94.01
2023-03-27T03:51:28.354Z,94.67
2023-03-27T03:53:54.896Z,94.91
2023-03-27T03:56:21.454Z,94.54
2023-03-27T03:58:47.960Z,94.27
2023-03-27T04:01:14.330Z,94.11
2023-03-27T04:03:41.583Z,94.52
2023-03-27T04:06:08.248Z,93.28
2023-03-27T04:08:35.211Z,93.64
2023-03-27T04:11:01.842Z,93.75
2023-03-27T04:13:28.251Z,94.10
2023-03-27T04:15:55.436Z,94.36
2023-03-27T04:18:24.653Z,94.74
2023-03-27T04:20:51.415Z,93.77
2023-03-27T04:23:21.209Z,93.60
2023-03-27T04:25:47.703Z,93.79
2023-03-27T04:28:17.495Z,92.18
2023-03-27T04:30:45.301Z,92.94
2023-03-27T04:33:18.483Z,93.27
2023-03-27T04:35:46.471Z,92.74
2023-03-27T04:38:37.051Z,93.07
2023-03-27T04:41:04.433Z,92.91
2023-03-27T04:43:31.014Z,92.67
2023-03-27T04:45:57.544Z,92.24
2023-03-27T04:48:23.939Z,93.37
2023-03-27T04:50:50.847Z,92.71
2023-03-27T04:53:20.539Z,93.04
2023-03-27T04:55:51.020Z,93.64
2023-03-27T04:58:20.879Z,93.74
2023-03-27T05:00:56.124Z,93.65
2023-03-27T05:03:27.690Z,93.89
2023-03-27T05:05:58.206Z,94.74
2023-03-27T05:08:24.761Z,94.26
2023-03-27T05:10:52.939Z,93.91
2023-03-27T05:13:19.540Z,94.71
2023-03-27T05:15:46.022Z,93.94
2023-03-27T05:18:12.660Z,95.30
2023-03-27T05:20:39.171Z,93.89
2023-03-27T05:23:05.670Z,93.32
2023-03-27T05:25:36.275Z,94.15
2023-03-27T05:28:02.932Z,93.74
2023-03-27T05:30:29.910Z,93.47
2023-03-27T05:32:59.196Z,93.66
2023-03-27T05:35:28.199Z,93.10
2023-03-27T05:37:56.111Z,91.92
2023-03-27T05:40:25.477Z,92.68
2023-03-27T05:42:56.503Z,93.76
2023-03-27T05:45:26.143Z,92.69
2023-03-27T05:47:56.605Z,93.61
2023-03-27T05:50:26.465Z,92.43
2023-03-27T05:53:04.221Z,92.34
2023-03-27T05:55:31.925Z,92.03
2023-03-27T05:57:58.392Z,92.87
2023-03-27T06:00:25.853Z,93.68
2023-03-27T06:02:57.381Z,92.94
2023-03-27T06:05:26.731Z,92.42
2023-03-27T06:07:53.516Z,92.33
2023-03-27T06:10:20.548Z,92.54
2023-03-27T06:12:48.958Z,92.45
2023-03-27T06:15:15.812Z,92.94
2023-03-27T06:17:43.802Z,91.55
2023-03-27T06:20:12.595Z,91.43
2023-03-27T06:22:46.501Z,91.10
2023-03-27T06:25:13.890Z,90.27
2023-03-27T06:27:45.385Z,90.70
2023-03-27T06:30:13.193Z,91.27
2023-03-27T06:32:47.605Z,92.04
2023-03-27T06:35:14.621Z,90.93
2023-03-27T06:37:41.989Z,90.22
2023-03-27T06:40:10.119Z,89.59
2023-03-27T06:42:37.030Z,89.93
2023-03-27T06:45:05.187Z,90.51
2023-03-27T06:47:34.585Z,91.21
2023-03-27T06:50:06.590Z,91.21
2023-03-27T06:52:33.048Z,91.99
2023-03-27T06:54:59.410Z,90.90
2023-03-27T06:57:25.892Z,92.16
2023-03-27T06:59:53.364Z,91.87
2023-03-27T07:02:19.743Z,92.07
2023-03-27T07:04:57.838Z,91.98
2023-03-27T07:07:30.824Z,90.92
2023-03-27T07:09:57.264Z,90.58
2023-03-27T07:12:23.851Z,91.68
2023-03-27T07:14:50.215Z,92.32
2023-03-27T07:17:16.710Z,91.88
2023-03-27T07:19:43.089Z,92.61
2023-03-27T07:22:09.671Z,93.46
2023-03-27T07:24:36.415Z,92.70
2023-03-27T07:27:02.996Z,92.15
2023-03-27T07:29:29.361Z,93.08
2023-03-27T07:31:58.552Z,91.57
2023-03-27T07:34:27.077Z,92.31
2023-03-27T07:36:53.525Z,92.03
2023-03-27T07:39:20.390Z,90.17
2023-03-27T07:41:46.833Z,90.29
2023-03-27T07:44:13.218Z,90.01
2023-03-27T07:46:39.587Z,88.99
2023-03-27T07:49:06.331Z,89.19
2023-03-27T07:51:33.059Z,89.92
2023-03-27T07:54:04.163Z,86.75
2023-03-27T07:56:33.383Z,86.57
2023-03-27T07:59:00.292Z,89.35
2023-03-27T08:01:27.562Z,86.06
2023-03-27T08:03:54.311Z,86.11
2023-03-27T08:06:20.945Z,84.67
2023-03-27T08:08:47.408Z,85.44
2023-03-27T08:11:27.211Z,85.37
2023-03-27T08:13:56.394Z,84.55
2023-03-27T08:16:27.565Z,85.21
2023-03-27T08:18:54.517Z,84.59
2023-03-27T08:21:21.095Z,84.13
2023-03-27T08:23:47.649Z,82.72
2023-03-27T08:26:14.466Z,84.17
2023-03-27T08:28:42.404Z,83.51
2023-03-27T08:31:12.763Z,83.93
2023-03-27T08:33:41.471Z,82.30
2023-03-27T08:36:10.589Z,82.84
2023-03-27T08:38:39.448Z,81.37
2023-03-27T08:41:06.699Z,82.31
2023-03-27T08:43:42.807Z,81.97
2023-03-27T08:46:19.762Z,80.20
2023-03-27T08:48:58.226Z,80.55
2023-03-27T08:51:47.074Z,80.92
2023-03-27T08:54:23.477Z,82.37
2023-03-27T08:56:50.299Z,80.33
2023-03-27T08:59:22.757Z,80.40
2023-03-27T09:02:08.995Z,80.32
2023-03-27T09:05:01.819Z,82.17
2023-03-27T09:08:05.124Z,82.24
2023-03-27T09:10:51.940Z,80.76
2023-03-27T09:14:01.873Z,78.73
2023-03-27T09:16:34.170Z,78.46
2023-03-27T09:19:12.865Z,75.91
2023-03-27T09:21:46.603Z,77.37
2023-03-27T09:24:35.189Z,76.72
2023-03-27T09:27:17.568Z,75.39
2023-03-27T09:29:45.067Z,71.69
2023-03-27T09:32:15.589Z,70.90
2023-03-27T09:34:42.292Z,70.82
2023-03-27T09:37:17.423Z,66.72
2023-03-27T09:39:48.179Z,65.90
2023-03-27T09:42:26.334Z,65.64
2023-03-27T09:44:59.342Z,65.03
2023-03-27T09:47:55.317Z,63.63
2023-03-27T09:50:34.933Z,64.90
2023-03-27T09:53:09.246Z,63.15
2023-03-27T09:55:58.384Z,59.73
2023-03-27T09:58:32.969Z,58.74
2023-03-27T10:01:07.374Z,57.55
2023-03-27T10:03:40.353Z,57.84
2023-03-27T10:06:13.613Z,54.30
2023-03-27T10:08:46.928Z,54.66
2023-03-27T10:11:24.013Z,52.80
2023-03-27T10:13:51.945Z,57.18
2023-03-27T10:16:21.479Z,57.72
2023-03-27T10:18:51.197Z,56.96
2023-03-27T10:21:40.355Z,56.19
2023-03-27T10:24:21.090Z,59.45
2023-03-27T10:26:49.005Z,59.12
2023-03-27T10:29:27.520Z,60.63
2023-03-27T10:31:56.758Z,60.23
2023-03-27T10:34:34.155Z,63.47
2023-03-27T10:37:03.048Z,54.39
2023-03-27T10:39:34.141Z,55.92
2023-03-27T10:42:09.212Z,53.11
2023-03-27T10:44:37.684Z,54.79
2023-03-27T10:47:14.923Z,54.27
2023-03-27T10:49:47.198Z,57.13
2023-03-27T10:52:31.644Z,55.61
2023-03-27T10:55:00.688Z,56.14
2023-03-27T10:57:34.526Z,51.33
2023-03-27T11:00:21.056Z,53.89
2023-03-27T11:02:58.149Z,47.39
2023-03-27T11:05:30.565Z,46.41
2023-03-27T11:08:05.831Z,47.39
2023-03-27T11:10:44.109Z,48.21
2023-03-27T11:13:18.428Z,48.98
2023-03-27T11:15:54.407Z,52.76
2023-03-27T11:18:29.710Z,53.94
2023-03-27T11:21:12.785Z,55.37
2023-03-27T11:23:48.322Z,55.09
2023-03-27T11:26:18.124Z,56.01
2023-03-27T11:29:09.255Z,53.31
2023-03-27T11:31:40.133Z,54.08
2023-03-27T11:34:28.862Z,52.38
2023-03-27T11:37:07.526Z,52.75
2023-03-27T11:40:09.385Z,54.46
2023-03-27T11:42:42.402Z,56.97
2023-03-27T11:45:14.417Z,51.75
2023-03-27T11:48:01.247Z,55.01
2023-03-27T11:50:44.151Z,54.67
2023-03-27T11:53:22.797Z,54.34
2023-03-27T11:56:08.788Z,57.95
2023-03-27T11:58:46.445Z,56.65
2023-03-27T12:01:27.751Z,56.27
2023-03-27T12:04:16.973Z,52.70
2023-03-27T12:07:04.230Z,52.50
2023-03-27T12:09:52.454Z,47.94
2023-03-27T12:12:37.878Z,43.42
2023-03-27T12:15:23.160Z,45.75
2023-03-27T12:18:09.181Z,44.28
2023-03-27T12:20:58.784Z,45.18
2023-03-27T12:23:32.444Z,45.84
2023-03-27T12:26:04.526Z,47.45
2023-03-27T12:29:00.619Z,48.50
2023-03-27T12:31:27.068Z,48.01
2023-03-27T12:34:01.117Z,47.98
2023-03-27T12:36:33.557Z,47.45
2023-03-27T12:39:00.452Z,50.72
2023-03-27T12:41:33.543Z,48.67
2023-03-27T12:44:03.510Z,46.43
2023-03-27T12:46:36.520Z,44.29
2023-03-27T12:49:23.851Z,43.49
2023-03-27T12:51:55.063Z,42.80
2023-03-27T12:54:27.841Z,46.50
2023-03-27T12:57:05.931Z,46.34
2023-03-27T12:59:40.015Z,47.05
2023-03-27T13:02:16.074Z,45.72
2023-03-27T13:05:03.157Z,46.49
2023-03-27T13:07:59.040Z,45.97
2023-03-27T13:10:40.238Z,43.76
2023-03-27T13:13:15.742Z,48.55
2023-03-27T13:16:19.608Z,48.58
2023-03-27T13:18:57.912Z,51.12
2023-03-27T13:21:51.845Z,49.44
2023-03-27T13:24:18.571Z,48.89
2023-03-27T13:27:21.862Z,44.90
2023-03-27T13:29:50.151Z,42.74
2023-03-27T13:32:39.855Z,42.84
2023-03-27T13:35:21.635Z,46.47
2023-03-27T13:37:51.686Z,45.28
2023-03-27T13:40:47.504Z,46.29
2023-03-27T13:43:23.485Z,45.26
2023-03-27T13:45:54.290Z,47.83
2023-03-27T13:48:42.918Z,54.84
2023-03-27T13:51:34.666Z,59.75
2023-03-27T13:54:39.950Z,60.52
2023-03-27T13:57:22.319Z,60.22
2023-03-27T14:00:16.675Z,60.27
2023-03-27T14:03:05.023Z,59.47
2023-03-27T14:05:40.555Z,59.44
2023-03-27T14:08:37.749Z,58.67
2023-03-27T14:11:23.736Z,56.48
2023-03-27T14:14:12.339Z,54.35
2023-03-27T14:16:45.201Z,51.73
2023-03-27T14:19:38.992Z,52.71
2023-03-27T14:22:14.732Z,53.46
2023-03-27T14:24:50.368Z,51.34
2023-03-27T14:27:19.477Z,51.51
2023-03-27T14:29:49.379Z,51.12
2023-03-27T14:32:17.995Z,51.43
2023-03-27T14:34:54.008Z,52.04
2023-03-27T14:37:29.139Z,57.84
2023-03-27T14:39:57.740Z,60.96
2023-03-27T14:42:32.603Z,60.00
2023-03-27T14:45:22.054Z,67.53
2023-03-27T14:48:17.363Z,72.41
2023-03-27T14:50:46.272Z,72.36
2023-03-27T14:53:18.205Z,67.62
2023-03-27T14:55:44.843Z,67.28
2023-03-27T14:58:19.232Z,66.11
2023-03-27T15:00:51.349Z,61.22
2023-03-27T15:03:21.648Z,59.16
2023-03-27T15:05:54.168Z,56.22
2023-03-27T15:08:22.264Z,58.42
2023-03-27T15:10:53.685Z,58.07
2023-03-27T15:13:23.828Z,54.53
2023-03-27T15:15:53.577Z,54.38
2023-03-27T15:18:31.245Z,53.37
2023-03-27T15:21:05.463Z,53.89
2023-03-27T15:23:38.887Z,53.10
2023-03-27T15:26:14.787Z,54.40
2023-03-27T15:29:32.420Z,55.03
2023-03-27T15:32:08.656Z,54.94
2023-03-27T15:34:46.025Z,56.13
2023-03-27T15:37:23.529Z,57.54
2023-03-27T15:40:34.323Z,56.90
2023-03-27T15:43:02.311Z,58.28
2023-03-27T15:45:39.864Z,58.24
2023-03-27T15:48:23.853Z,58.31
2023-03-27T15:50:58.310Z,57.81
2023-03-27T15:53:39.557Z,58.71
2023-03-27T15:56:13.626Z,60.46
2023-03-27T15:58:59.487Z,62.69
2023-03-27T16:01:32.104Z,64.03
2023-03-27T16:04:19.445Z,65.56
2023-03-27T16:06:52.342Z,67.92
2023-03-27T16:09:32.766Z,67.71
2023-03-27T16:12:00.143Z,69.01
2023-03-27T16:14:40.578Z,70.88
2023-03-27T16:17:10.189Z,71.07
2023-03-27T16:19:48.224Z,71.08
2023-03-27T16:22:22.449Z,71.66
2023-03-27T16:24:49.307Z,70.73
2023-03-27T16:27:17.033Z,72.37
2023-03-27T16:29:43.489Z,71.44
2023-03-27T16:32:13.181Z,71.91
2023-03-27T16:34:40.554Z,72.47
2023-03-27T16:37:07.600Z,70.91
2023-03-27T16:39:34.365Z,71.74
2023-03-27T16:42:00.886Z,72.75
2023-03-27T16:44:27.358Z,72.02
2023-03-27T16:46:53.911Z,72.32
2023-03-27T16:49:20.402Z,72.78
2023-03-27T16:51:46.748Z,73.17
2023-03-27T16:54:13.075Z,73.24
2023-03-27T16:56:39.480Z,72.81
2023-03-27T16:59:05.897Z,73.15
2023-03-27T17:01:32.363Z,73.41
2023-03-27T17:03:58.843Z,73.77
2023-03-27T17:06:25.278Z,73.20
2023-03-27T17:08:55.247Z,73.70
2023-03-27T17:11:22.977Z,73.04
2023-03-27T17:13:50.257Z,74.51
2023-03-27T17:16:16.864Z,74.26
2023-03-27T17:18:43.464Z,74.66
2023-03-27T17:21:13.251Z,73.94
2023-03-27T17:23:42.062Z,75.36
2023-03-27T17:26:12.998Z,74.71
2023-03-27T17:28:42.884Z,76.93
2023-03-27T17:31:09.282Z,78.96
2023-03-27T17:33:36.387Z,79.79
2023-03-27T17:36:11.377Z,80.38
2023-03-27T17:38:38.210Z,80.40
2023-03-27T17:41:07.249Z,80.12
2023-03-27T17:43:33.891Z,80.65
2023-03-27T17:46:00.628Z,80.23
2023-03-27T17:48:27.518Z,80.20
2023-03-27T17:51:07.480Z,80.42
2023-03-27T17:53:37.000Z,80.25
2023-03-27T17:56:04.025Z,80.50
2023-03-27T17:58:31.253Z,80.68
2023-03-27T18:00:57.616Z,81.28
2023-03-27T18:03:24.181Z,81.13
2023-03-27T18:05:50.985Z,80.87
2023-03-27T18:08:19.913Z,81.18
2023-03-27T18:10:50.248Z,81.13
2023-03-27T18:13:20.455Z,80.63
2023-03-27T18:15:46.921Z,80.85
2023-03-27T18:18:13.389Z,80.82
2023-03-27T18:20:40.277Z,81.70
2023-03-27T18:23:06.764Z,81.32
2023-03-27T18:25:33.383Z,80.87
2023-03-27T18:27:59.845Z,81.98
2023-03-27T18:30:26.365Z,82.17
2023-03-27T18:32:52.770Z,81.61
2023-03-27T18:35:20.583Z,81.87
2023-03-27T18:37:47.140Z,82.40
2023-03-27T18:40:15.998Z,81.76
2023-03-27T18:42:45.952Z,82.47
2023-03-27T18:45:15.113Z,82.14
2023-03-27T18:47:42.929Z,82.37
2023-03-27T18:50:11.900Z,81.79
2023-03-27T18:52:38.776Z,82.94
2023-03-27T18:55:07.524Z,83.26
2023-03-27T18:57:34.493Z,82.74
2023-03-27T19:00:01.326Z,83.08
2023-03-27T19:02:28.825Z,83.31
2023-03-27T19:04:55.524Z,82.54
2023-03-27T19:07:21.942Z,84.02
2023-03-27T19:09:48.428Z,82.91
2023-03-27T19:12:14.791Z,83.92
2023-03-27T19:14:41.571Z,83.96
2023-03-27T19:17:08.108Z,84.40
2023-03-27T19:19:34.575Z,83.68
2023-03-27T19:22:01.094Z,84.06
2023-03-27T19:24:27.538Z,84.37
2023-03-27T19:26:53.913Z,84.13
2023-03-27T19:29:20.349Z,83.78
2023-03-27T19:31:46.787Z,83.37
2023-03-27T19:34:13.269Z,82.98
2023-03-27T19:36:39.757Z,83.59
2023-03-27T19:39:06.992Z,83.18
2023-03-27T19:41:33.425Z,83.16
2023-03-27T19:44:00.497Z,83.68
2023-03-27T19:48:55.746Z,84.34
2023-03-27T19:51:22.796Z,83.30
2023-03-27T19:53:49.208Z,84.31
2023-03-27T19:56:16.068Z,83.74
2023-03-27T19:58:42.713Z,84.42
2023-03-27T20:01:09.430Z,83.62
2023-03-27T20:03:38.293Z,84.43
2023-03-27T20:06:11.128Z,83.99
2023-03-27T20:08:40.946Z,84.38
2023-03-27T20:11:07.916Z,84.70
2023-03-27T20:13:42.289Z,84.02
2023-03-27T20:16:14.754Z,85.08
2023-03-27T20:18:41.782Z,84.36
2023-03-27T20:21:13.685Z,85.30
2023-03-27T20:23:41.861Z,86.10
2023-03-27T20:26:09.079Z,86.67
2023-03-27T20:28:36.148Z,86.04
2023-03-27T20:31:06.515Z,86.22
2023-03-27T20:33:33.059Z,85.06
2023-03-27T20:36:00.070Z,84.82
2023-03-27T20:38:31.359Z,84.84
2023-03-27T20:40:58.460Z,84.83
2023-03-27T20:43:26.957Z,84.48
2023-03-27T20:45:54.968Z,83.78
2023-03-27T20:48:21.965Z,83.53
2023-03-27T20:50:55.305Z,83.25
2023-03-27T20:53:30.350Z,82.59
2023-03-27T20:56:03.502Z,83.53
2023-03-27T20:58:33.124Z,82.61
2023-03-27T21:01:04.818Z,82.13
2023-03-27T21:03:36.666Z,81.63
2023-03-27T21:06:05.601Z,81.69
2023-03-27T21:08:32.489Z,81.61
2023-03-27T21:10:58.917Z,80.63
2023-03-27T21:13:25.488Z,80.68
2023-03-27T21:15:52.005Z,80.65
2023-03-27T21:18:18.681Z,79.75
2023-03-27T21:20:45.365Z,78.59
2023-03-27T21:23:11.751Z,78.78
2023-03-27T21:25:38.618Z,79.30
2023-03-27T21:28:06.072Z,78.81
2023-03-27T21:30:47.294Z,79.58
2023-03-27T21:33:16.452Z,78.77
2023-03-27T21:35:46.751Z,78.98
2023-03-27T21:38:14.092Z,80.25
2023-03-27T21:40:41.183Z,79.22
2023-03-27T21:43:08.807Z,78.52
2023-03-27T21:45:36.413Z,79.74
2023-03-27T21:48:02.974Z,78.77
2023-03-27T21:50:29.800Z,80.49
2023-03-27T21:52:56.645Z,79.03
2023-03-27T21:55:23.100Z,80.31
2023-03-27T21:57:49.494Z,80.08
2023-03-27T22:00:16.180Z,80.36
2023-03-27T22:02:42.703Z,80.82
2023-03-27T22:05:09.628Z,81.60
2023-03-27T22:07:36.604Z,80.84
2023-03-27T22:10:06.253Z,81.37
2023-03-27T22:12:36.872Z,83.32
2023-03-27T22:15:05.876Z,83.15
2023-03-27T22:17:32.531Z,82.59
2023-03-27T22:19:59.195Z,83.73
2023-03-27T22:22:25.641Z,84.09
2023-03-27T22:24:52.126Z,83.97
2023-03-27T22:27:18.716Z,84.06
2023-03-27T22:29:45.101Z,84.70
2023-03-27T22:32:11.558Z,84.28
2023-03-27T22:34:37.978Z,84.31
2023-03-27T22:37:04.477Z,84.11
2023-03-27T22:39:31.388Z,84.45
2023-03-27T22:41:58.047Z,85.31
2023-03-27T22:44:24.665Z,85.99
2023-03-27T22:46:52.887Z,85.52
2023-03-27T22:49:19.468Z,85.84
2023-03-27T22:51:45.825Z,86.41
2023-03-27T22:54:12.366Z,86.98
2023-03-27T22:56:38.869Z,85.49
2023-03-27T22:59:06.044Z,86.03
2023-03-27T23:01:32.633Z,86.63
2023-03-27T23:03:59.174Z,86.66
2023-03-27T23:06:25.639Z,87.53
2023-03-27T23:08:52.141Z,86.19
2023-03-27T23:11:19.600Z,86.45
2023-03-27T23:13:46.749Z,85.86
2023-03-27T23:16:13.289Z,86.97
2023-03-27T23:18:40.161Z,85.54
2023-03-27T23:21:09.533Z,86.35
2023-03-27T23:23:38.059Z,86.03
2023-03-27T23:26:06.109Z,86.75
2023-03-27T23:28:35.438Z,87.22
2023-03-27T23:31:05.772Z,87.31
2023-03-27T23:33:38.421Z,86.90
2023-03-27T23:36:08.446Z,86.19
2023-03-27T23:38:35.815Z,87.40
2023-03-27T23:41:02.953Z,85.78
2023-03-27T23:43:30.661Z,85.97
2023-03-27T23:45:59.458Z,85.86
2023-03-27T23:48:30.292Z,86.37
2023-03-27T23:50:57.511Z,85.74
2023-03-27T23:53:26.166Z,87.01
2023-03-27T23:55:53.467Z,86.65
2023-03-27T23:58:20.223Z,86.16
